CheckWX is a tool to help pilots better visualize weather data.  It is not intended as a substitute for an official pre-flight weather briefing.

18:48:07 UTC

ENQA METAR
Troll A Platform Heliport
Norway
Current

28 mins ago

ENQA 171820Z AUTO 17048KT 5000NDV OVC007/// 07/05 Q1004 W05/S5
Observed
Feb-17 @ 18:20 UTC
Wind
  • 170° at 48 KTS
Visibility
Cloud Levels
  • Overcast at 700' AGL
Temperature
C / 45°F
Dewpoint
C / 41°F
Humidity
87%
Altimeter
29.65" Hg
Pressure
1003.92 hPa
Previous

58 mins ago

ENQA 171750Z AUTO 16048KT 5000NDV BKN007/// 07/05 Q1004 W05/S5
Observed
Feb-17 @ 17:50 UTC
Wind
  • 160° at 48 KTS
Visibility
Cloud Levels
  • Broken at 700' AGL
Temperature
C / 45°F
Dewpoint
C / 41°F
Humidity
87%
Altimeter
29.65" Hg
Pressure
1003.92 hPa
Previous

1 hour ago

ENQA 171720Z AUTO 17049KT 6000NDV OVC007/// 07/06 Q1004 W05/S5
Observed
Feb-17 @ 17:20 UTC
Wind
  • 170° at 49 KTS
Visibility
Cloud Levels
  • Overcast at 700' AGL
Temperature
C / 45°F
Dewpoint
C / 43°F
Humidity
93%
Altimeter
29.65" Hg
Pressure
1003.92 hPa